sensor_id;sensor_type;location;lat;lon;timestamp;pressure;altitude;pressure_sealevel;temperature;humidity
31092;BME280;67728;53.122;12.776;2023-04-02T00:01:18;100499.81;;;2.37;76.74
31092;BME280;67728;53.122;12.776;2023-04-02T00:02:58;100504.94;;;2.38;75.30
31092;BME280;67728;53.122;12.776;2023-04-02T00:04:30;100494.78;;;2.43;74.84
31092;BME280;67728;53.122;12.776;2023-04-02T00:06:32;100492.13;;;2.37;75.09
31092;BME280;67728;53.122;12.776;2023-04-02T00:08:18;100498.25;;;2.48;73.90
31092;BME280;67728;53.122;12.776;2023-04-02T00:09:50;100506.72;;;2.42;75.69
31092;BME280;67728;53.122;12.776;2023-04-02T00:11:27;100504.19;;;2.47;74.22
31092;BME280;67728;53.122;12.776;2023-04-02T00:13:04;100505.03;;;2.45;74.11
31092;BME280;67728;53.122;12.776;2023-04-02T00:14:36;100506.81;;;2.50;74.00
31092;BME280;67728;53.122;12.776;2023-04-02T00:16:11;100514.50;;;2.50;73.78
31092;BME280;67728;53.122;12.776;2023-04-02T00:17:43;100511.09;;;2.51;74.25
31092;BME280;67728;53.122;12.776;2023-04-02T00:19:18;100514.44;;;2.47;75.20
31092;BME280;67728;53.122;12.776;2023-04-02T00:20:52;100517.00;;;2.47;75.96
31092;BME280;67728;53.122;12.776;2023-04-02T00:22:27;100516.91;;;2.39;76.75
31092;BME280;67728;53.122;12.776;2023-04-02T00:24:09;100521.19;;;2.42;74.52
31092;BME280;67728;53.122;12.776;2023-04-02T00:25:44;100522.16;;;2.50;73.75
31092;BME280;67728;53.122;12.776;2023-04-02T00:27:16;100529.03;;;2.53;73.23
31092;BME280;67728;53.122;12.776;2023-04-02T00:28:48;100523.81;;;2.45;75.73
31092;BME280;67728;53.122;12.776;2023-04-02T00:30:20;100523.81;;;2.45;74.93
31092;BME280;67728;53.122;12.776;2023-04-02T00:31:52;100522.06;;;2.42;75.69
31092;BME280;67728;53.122;12.776;2023-04-02T00:33:27;100528.06;;;2.45;75.23
31092;BME280;67728;53.122;12.776;2023-04-02T00:34:59;100528.94;;;2.45;76.64
31092;BME280;67728;53.122;12.776;2023-04-02T00:36:32;100528.94;;;2.45;75.18
31092;BME280;67728;53.122;12.776;2023-04-02T00:38:05;100532.41;;;2.49;74.97
31092;BME280;67728;53.122;12.776;2023-04-02T00:39:38;100531.59;;;2.53;75.89
31092;BME280;67728;53.122;12.776;2023-04-02T00:41:14;100535.75;;;2.46;75.59
31092;BME280;67728;53.122;12.776;2023-04-02T00:42:47;100533.19;;;2.46;75.88
31092;BME280;67728;53.122;12.776;2023-04-02T00:44:19;100545.16;;;2.47;77.07
31092;BME280;67728;53.122;12.776;2023-04-02T00:45:55;100539.94;;;2.41;79.13
31092;BME280;67728;53.122;12.776;2023-04-02T00:47:32;100538.25;;;2.41;76.29
31092;BME280;67728;53.122;12.776;2023-04-02T00:49:07;100541.69;;;2.42;78.49
31092;BME280;67728;53.122;12.776;2023-04-02T00:50:41;100542.53;;;2.42;77.34
31092;BME280;67728;53.122;12.776;2023-04-02T00:52:16;100549.28;;;2.37;78.63
31092;BME280;67728;53.122;12.776;2023-04-02T00:53:51;100551.84;;;2.37;76.34
31092;BME280;67728;53.122;12.776;2023-04-02T00:55:31;100550.19;;;2.41;76.90
31092;BME280;67728;53.122;12.776;2023-04-02T00:57:13;100556.25;;;2.48;75.10
31092;BME280;67728;53.122;12.776;2023-04-02T00:58:51;100563.13;;;2.49;76.49
31092;BME280;67728;53.122;12.776;2023-04-02T01:00:27;100562.31;;;2.51;75.89
31092;BME280;67728;53.122;12.776;2023-04-02T01:03:53;100553.66;;;2.43;76.12
31092;BME280;67728;53.122;12.776;2023-04-02T01:05:33;100562.31;;;2.51;75.59
31092;BME280;67728;53.122;12.776;2023-04-02T01:07:07;100558.84;;;2.49;76.64
31092;BME280;67728;53.122;12.776;2023-04-02T01:08:54;100568.28;;;2.53;75.33
31092;BME280;67728;53.122;12.776;2023-04-02T01:10:47;100580.28;;;2.56;76.04
31092;BME280;67728;53.122;12.776;2023-04-02T01:12:40;100575.06;;;2.50;75.81
31092;BME280;67728;53.122;12.776;2023-04-02T01:14:19;100576.69;;;2.46;76.60
31092;BME280;67728;53.122;12.776;2023-04-02T01:15:59;100572.50;;;2.50;74.54
31092;BME280;67728;53.122;12.776;2023-04-02T01:17:47;100575.91;;;2.50;75.90
31092;BME280;67728;53.122;12.776;2023-04-02T01:21:38;100578.47;;;2.49;74.65
31092;BME280;67728;53.122;12.776;2023-04-02T01:23:14;100591.28;;;2.52;75.24
31092;BME280;67728;53.122;12.776;2023-04-02T01:24:47;100583.53;;;2.46;77.37
31092;BME280;67728;53.122;12.776;2023-04-02T01:26:29;100586.06;;;2.42;76.44
31092;BME280;67728;53.122;12.776;2023-04-02T01:28:07;100592.03;;;2.43;73.82
31092;BME280;67728;53.122;12.776;2023-04-02T01:29:45;100587.78;;;2.45;72.87
31092;BME280;67728;53.122;12.776;2023-04-02T01:31:19;100595.47;;;2.45;74.74
31092;BME280;67728;53.122;12.776;2023-04-02T01:32:52;100601.38;;;2.41;75.53
31092;BME280;67728;53.122;12.776;2023-04-02T01:34:25;100603.09;;;2.40;74.34
31092;BME280;67728;53.122;12.776;2023-04-02T01:36:04;100599.56;;;2.35;75.05
31092;BME280;67728;53.122;12.776;2023-04-02T01:37:41;100611.59;;;2.39;73.80
31092;BME280;67728;53.122;12.776;2023-04-02T01:39:26;100612.50;;;2.43;74.73
31092;BME280;67728;53.122;12.776;2023-04-02T01:41:07;100613.34;;;2.43;73.92
31092;BME280;67728;53.122;12.776;2023-04-02T01:42:48;100616.75;;;2.42;73.98
31092;BME280;67728;53.122;12.776;2023-04-02T01:44:26;100616.78;;;2.44;73.86
31092;BME280;67728;53.122;12.776;2023-04-02T01:46:10;100617.63;;;2.43;73.87
31092;BME280;67728;53.122;12.776;2023-04-02T01:47:54;100612.53;;;2.45;73.88
31092;BME280;67728;53.122;12.776;2023-04-02T01:49:27;100623.56;;;2.42;74.55
31092;BME280;67728;53.122;12.776;2023-04-02T01:50:59;100626.25;;;2.50;72.03
31092;BME280;67728;53.122;12.776;2023-04-02T01:52:36;100625.38;;;2.48;73.90
31092;BME280;67728;53.122;12.776;2023-04-02T01:54:11;100633.00;;;2.45;75.01
31092;BME280;67728;53.122;12.776;2023-04-02T01:55:46;100629.66;;;2.49;73.26
31092;BME280;67728;53.122;12.776;2023-04-02T01:57:18;100639.91;;;2.49;75.26
31092;BME280;67728;53.122;12.776;2023-04-02T01:58:50;100642.53;;;2.53;74.43
31092;BME280;67728;53.122;12.776;2023-04-02T02:00:22;100647.44;;;2.39;75.72
31092;BME280;67728;53.122;12.776;2023-04-02T02:02:00;100641.50;;;2.43;75.40
31092;BME280;67728;53.122;12.776;2023-04-02T02:03:32;100641.59;;;2.48;73.94
31092;BME280;67728;53.122;12.776;2023-04-02T02:05:08;100647.50;;;2.44;75.24
31092;BME280;67728;53.122;12.776;2023-04-02T02:06:43;100644.97;;;2.47;76.17
31092;BME280;67728;53.122;12.776;2023-04-02T02:08:25;100648.28;;;2.40;75.98
31092;BME280;67728;53.122;12.776;2023-04-02T02:10:00;100649.16;;;2.40;74.09
31092;BME280;67728;53.122;12.776;2023-04-02T02:11:33;100650.94;;;2.46;74.43
31092;BME280;67728;53.122;12.776;2023-04-02T02:13:05;100657.84;;;2.50;74.57
31092;BME280;67728;53.122;12.776;2023-04-02T02:14:36;100653.44;;;2.41;76.13
31092;BME280;67728;53.122;12.776;2023-04-02T02:16:09;100669.69;;;2.45;74.79
31092;BME280;67728;53.122;12.776;2023-04-02T02:17:46;100661.97;;;2.43;74.59
31092;BME280;67728;53.122;12.776;2023-04-02T02:19:23;100670.56;;;2.46;75.67
31092;BME280;67728;53.122;12.776;2023-04-02T02:20:58;100671.38;;;2.43;75.41
31092;BME280;67728;53.122;12.776;2023-04-02T02:22:32;100679.19;;;2.51;74.98
31092;BME280;67728;53.122;12.776;2023-04-02T02:24:08;100674.88;;;2.50;75.33
31092;BME280;67728;53.122;12.776;2023-04-02T02:25:45;100674.06;;;2.51;74.62
31092;BME280;67728;53.122;12.776;2023-04-02T02:27:42;100679.06;;;2.45;75.33
31092;BME280;67728;53.122;12.776;2023-04-02T02:29:17;100673.13;;;2.47;74.87
31092;BME280;67728;53.122;12.776;2023-04-02T02:30:54;100677.31;;;2.42;76.82
31092;BME280;67728;53.122;12.776;2023-04-02T02:32:28;100686.75;;;2.43;74.79
31092;BME280;67728;53.122;12.776;2023-04-02T02:34:04;100690.19;;;2.45;76.12
31092;BME280;67728;53.122;12.776;2023-04-02T02:35:43;100695.25;;;2.42;75.53
31092;BME280;67728;53.122;12.776;2023-04-02T02:37:21;100703.78;;;2.42;74.96
31092;BME280;67728;53.122;12.776;2023-04-02T02:38:56;100689.31;;;2.45;75.07
31092;BME280;67728;53.122;12.776;2023-04-02T02:40:35;100700.41;;;2.45;74.43
31092;BME280;67728;53.122;12.776;2023-04-02T02:42:13;100708.06;;;2.43;76.27
31092;BME280;67728;53.122;12.776;2023-04-02T02:43:51;100708.81;;;2.38;77.53
31092;BME280;67728;53.122;12.776;2023-04-02T02:45:27;100706.41;;;2.47;74.92
31092;BME280;67728;53.122;12.776;2023-04-02T02:47:01;100711.53;;;2.47;73.49
31092;BME280;67728;53.122;12.776;2023-04-02T02:48:36;100716.72;;;2.52;74.00
31092;BME280;67728;53.122;12.776;2023-04-02T02:50:17;100722.63;;;2.48;73.86
31092;BME280;67728;53.122;12.776;2023-04-02T02:51:53;100717.53;;;2.49;75.06
31092;BME280;67728;53.122;12.776;2023-04-02T02:53:27;100727.06;;;2.56;73.98
31092;BME280;67728;53.122;12.776;2023-04-02T02:55:01;100735.56;;;2.55;74.37
31092;BME280;67728;53.122;12.776;2023-04-02T02:56:37;100729.50;;;2.50;73.84
31092;BME280;67728;53.122;12.776;2023-04-02T02:58:15;100732.94;;;2.52;74.68
31092;BME280;67728;53.122;12.776;2023-04-02T02:59:50;100733.75;;;2.50;74.28
31092;BME280;67728;53.122;12.776;2023-04-02T03:01:22;100740.63;;;2.51;74.51
31092;BME280;67728;53.122;12.776;2023-04-02T03:02:55;100738.88;;;2.50;75.56
31092;BME280;67728;53.122;12.776;2023-04-02T03:04:27;100752.47;;;2.46;76.23
31092;BME280;67728;53.122;12.776;2023-04-02T03:06:03;100746.53;;;2.48;74.45
31092;BME280;67728;53.122;12.776;2023-04-02T03:07:35;100752.50;;;2.47;76.19
31092;BME280;67728;53.122;12.776;2023-04-02T03:09:13;100755.06;;;2.47;76.83
31092;BME280;67728;53.122;12.776;2023-04-02T03:10:51;100755.06;;;2.47;77.07
31092;BME280;67728;53.122;12.776;2023-04-02T03:12:33;100758.47;;;2.48;76.97
31092;BME280;67728;53.122;12.776;2023-04-02T03:14:15;100758.47;;;2.48;76.21
31092;BME280;67728;53.122;12.776;2023-04-02T03:15:57;100760.09;;;2.44;74.13
31092;BME280;67728;53.122;12.776;2023-04-02T03:17:33;100765.41;;;2.53;74.92
31092;BME280;67728;53.122;12.776;2023-04-02T03:19:10;100758.50;;;2.49;75.95
31092;BME280;67728;53.122;12.776;2023-04-02T03:20:48;100768.78;;;2.52;75.79
31092;BME280;67728;53.122;12.776;2023-04-02T03:22:28;100773.84;;;2.48;76.33
31092;BME280;67728;53.122;12.776;2023-04-02T03:24:04;100774.69;;;2.48;74.55
31092;BME280;67728;53.122;12.776;2023-04-02T03:25:42;100774.66;;;2.45;76.11
31092;BME280;67728;53.122;12.776;2023-04-02T03:27:19;100783.19;;;2.46;75.59
31092;BME280;67728;53.122;12.776;2023-04-02T03:28:56;100786.63;;;2.48;75.97
31092;BME280;67728;53.122;12.776;2023-04-02T03:30:36;100788.38;;;2.49;74.23
31092;BME280;67728;53.122;12.776;2023-04-02T03:32:14;100791.00;;;2.53;75.19
31092;BME280;67728;53.122;12.776;2023-04-02T03:33:50;100791.88;;;2.54;75.49
31092;BME280;67728;53.122;12.776;2023-04-02T03:35:30;100800.19;;;2.43;76.22
31092;BME280;67728;53.122;12.776;2023-04-02T03:37:09;100796.88;;;2.48;77.26
31092;BME280;67728;53.122;12.776;2023-04-02T03:38:44;100804.63;;;2.52;75.51
31092;BME280;67728;53.122;12.776;2023-04-02T03:40:20;100798.69;;;2.53;74.05
31092;BME280;67728;53.122;12.776;2023-04-02T03:41:57;100813.19;;;2.54;73.21
31092;BME280;67728;53.122;12.776;2023-04-02T03:43:31;100805.63;;;2.59;74.96
31092;BME280;67728;53.122;12.776;2023-04-02T03:45:10;100803.66;;;2.46;74.71
31092;BME280;67728;53.122;12.776;2023-04-02T03:46:48;100814.03;;;2.53;76.22
31092;BME280;67728;53.122;12.776;2023-04-02T03:48:30;100815.78;;;2.56;75.69
31092;BME280;67728;53.122;12.776;2023-04-02T03:50:06;100813.03;;;2.45;74.28
31092;BME280;67728;53.122;12.776;2023-04-02T03:51:40;100819.94;;;2.49;74.90
31092;BME280;67728;53.122;12.776;2023-04-02T03:53:14;100818.34;;;2.56;74.31
31092;BME280;67728;53.122;12.776;2023-04-02T03:54:48;100825.09;;;2.52;74.83
31092;BME280;67728;53.122;12.776;2023-04-02T03:56:25;100821.59;;;2.46;75.69
31092;BME280;67728;53.122;12.776;2023-04-02T03:58:00;100828.56;;;2.54;74.86
31092;BME280;67728;53.122;12.776;2023-04-02T03:59:38;100831.84;;;2.47;75.20
31092;BME280;67728;53.122;12.776;2023-04-02T04:01:17;100848.13;;;2.51;74.66
31092;BME280;67728;53.122;12.776;2023-04-02T04:02:51;100844.69;;;2.49;74.97
31092;BME280;67728;53.122;12.776;2023-04-02T04:04:26;100849.84;;;2.52;75.24
31092;BME280;67728;53.122;12.776;2023-04-02T04:05:59;100848.13;;;2.51;75.90
31092;BME280;67728;53.122;12.776;2023-04-02T04:07:33;100853.19;;;2.49;75.87
31092;BME280;67728;53.122;12.776;2023-04-02T04:09:08;100863.38;;;2.45;73.83
31092;BME280;67728;53.122;12.776;2023-04-02T04:10:42;100858.38;;;2.52;73.18
31092;BME280;67728;53.122;12.776;2023-04-02T04:12:22;100854.06;;;2.48;75.00
31092;BME280;67728;53.122;12.776;2023-04-02T04:13:58;100866.88;;;2.50;73.77
31092;BME280;67728;53.122;12.776;2023-04-02T04:15:34;100871.19;;;2.52;74.01
31092;BME280;67728;53.122;12.776;2023-04-02T04:17:12;100869.44;;;2.50;75.54
31092;BME280;67728;53.122;12.776;2023-04-02T04:18:48;100869.34;;;2.45;73.03
31092;BME280;67728;53.122;12.776;2023-04-02T04:20:25;100872.84;;;2.49;74.17
31092;BME280;67728;53.122;12.776;2023-04-02T04:22:09;100878.88;;;2.52;72.21
31092;BME280;67728;53.122;12.776;2023-04-02T04:23:47;100881.44;;;2.52;72.75
31092;BME280;67728;53.122;12.776;2023-04-02T04:25:24;100879.47;;;2.39;76.68
31092;BME280;67728;53.122;12.776;2023-04-02T04:27:05;100882.97;;;2.44;74.74
31092;BME280;67728;53.122;12.776;2023-04-02T04:28:43;100883.03;;;2.47;74.02
31092;BME280;67728;53.122;12.776;2023-04-02T04:30:23;100886.47;;;2.49;73.01
31092;BME280;67728;53.122;12.776;2023-04-02T04:32:09;100894.16;;;2.48;73.55
31092;BME280;67728;53.122;12.776;2023-04-02T04:33:47;100894.06;;;2.43;73.48
31092;BME280;67728;53.122;12.776;2023-04-02T04:35:27;100886.53;;;2.52;72.14
31092;BME280;67728;53.122;12.776;2023-04-02T04:37:02;100899.47;;;2.57;74.04
31092;BME280;67728;53.122;12.776;2023-04-02T04:38:38;100901.88;;;2.51;72.61
31092;BME280;67728;53.122;12.776;2023-04-02T04:40:18;100900.19;;;2.51;73.53
31092;BME280;67728;53.122;12.776;2023-04-02T04:41:51;100900.22;;;2.54;72.92
31092;BME280;67728;53.122;12.776;2023-04-02T04:43:30;100904.59;;;2.58;73.13
31092;BME280;67728;53.122;12.776;2023-04-02T04:45:10;100907.13;;;2.57;75.02
31092;BME280;67728;53.122;12.776;2023-04-02T04:46:46;100912.06;;;2.49;75.04
31092;BME280;67728;53.122;12.776;2023-04-02T04:48:23;100924.78;;;2.45;76.39
31092;BME280;67728;53.122;12.776;2023-04-02T04:49:59;100923.16;;;2.48;73.58
31092;BME280;67728;53.122;12.776;2023-04-02T04:51:36;100923.25;;;2.51;73.43
31092;BME280;67728;53.122;12.776;2023-04-02T04:53:14;100928.38;;;2.53;72.72
31092;BME280;67728;53.122;12.776;2023-04-02T04:54:46;100928.50;;;2.59;71.89
31092;BME280;67728;53.122;12.776;2023-04-02T04:56:20;100929.44;;;2.62;71.83
31092;BME280;67728;53.122;12.776;2023-04-02T04:57:55;100937.88;;;2.58;73.24
31092;BME280;67728;53.122;12.776;2023-04-02T04:59:32;100943.72;;;2.51;73.35
31092;BME280;67728;53.122;12.776;2023-04-02T05:01:15;100944.66;;;2.56;73.18
31092;BME280;67728;53.122;12.776;2023-04-02T05:02:52;100945.47;;;2.54;74.08
31092;BME280;67728;53.122;12.776;2023-04-02T05:04:28;100944.69;;;2.58;72.60
31092;BME280;67728;53.122;12.776;2023-04-02T05:06:07;100948.13;;;2.58;72.50
31092;BME280;67728;53.122;12.776;2023-04-02T05:07:44;100957.41;;;2.53;74.17
31092;BME280;67728;53.122;12.776;2023-04-02T05:09:23;100956.56;;;2.54;73.11
31092;BME280;67728;53.122;12.776;2023-04-02T05:11:00;100959.97;;;2.53;74.53
31092;BME280;67728;53.122;12.776;2023-04-02T05:12:35;100960.84;;;2.54;74.37
31092;BME280;67728;53.122;12.776;2023-04-02T05:14:17;100964.22;;;2.54;74.03
31092;BME280;67728;53.122;12.776;2023-04-02T05:15:58;100973.59;;;2.52;72.80
31092;BME280;67728;53.122;12.776;2023-04-02T05:17:35;100971.16;;;2.58;73.64
31092;BME280;67728;53.122;12.776;2023-04-02T05:19:11;100973.66;;;2.55;73.87
31092;BME280;67728;53.122;12.776;2023-04-02T05:20:49;100983.13;;;2.59;73.70
31092;BME280;67728;53.122;12.776;2023-04-02T05:22:27;100978.03;;;2.61;72.66
31092;BME280;67728;53.122;12.776;2023-04-02T05:26:10;100992.50;;;2.59;75.09
31092;BME280;67728;53.122;12.776;2023-04-02T05:27:46;100990.09;;;2.65;72.36
31092;BME280;67728;53.122;12.776;2023-04-02T05:29:26;101001.94;;;2.61;73.42
31092;BME280;67728;53.122;12.776;2023-04-02T05:31:04;100999.53;;;2.67;72.13
31092;BME280;67728;53.122;12.776;2023-04-02T05:32:42;101001.22;;;2.67;71.08
31092;BME280;67728;53.122;12.776;2023-04-02T05:34:22;100994.41;;;2.67;73.65
31092;BME280;67728;53.122;12.776;2023-04-02T05:35:58;101002.78;;;2.60;71.69
31092;BME280;67728;53.122;12.776;2023-04-02T05:37:31;101011.38;;;2.62;74.21
31092;BME280;67728;53.122;12.776;2023-04-02T05:39:07;101013.97;;;2.64;71.99
31092;BME280;67728;53.122;12.776;2023-04-02T05:40:42;101010.69;;;2.71;71.08
31092;BME280;67728;53.122;12.776;2023-04-02T05:42:19;101014.16;;;2.73;71.25
31092;BME280;67728;53.122;12.776;2023-04-02T05:44:03;101034.72;;;2.77;72.03
31092;BME280;67728;53.122;12.776;2023-04-02T05:45:38;101016.75;;;2.76;71.03
31092;BME280;67728;53.122;12.776;2023-04-02T05:47:17;101023.56;;;2.74;71.66
31092;BME280;67728;53.122;12.776;2023-04-02T05:48:54;101023.63;;;2.77;71.22
31092;BME280;67728;53.122;12.776;2023-04-02T05:50:29;101034.66;;;2.74;71.40
31092;BME280;67728;53.122;12.776;2023-04-02T05:52:03;101036.28;;;2.71;71.86
31092;BME280;67728;53.122;12.776;2023-04-02T05:53:39;101035.53;;;2.75;70.05
31092;BME280;67728;53.122;12.776;2023-04-02T05:55:30;101035.66;;;2.81;71.01
31092;BME280;67728;53.122;12.776;2023-04-02T05:57:08;101043.31;;;2.79;71.69
31092;BME280;67728;53.122;12.776;2023-04-02T05:58:45;101045.78;;;2.76;70.26
31092;BME280;67728;53.122;12.776;2023-04-02T06:00:23;101035.69;;;2.82;69.88
31092;BME280;67728;53.122;12.776;2023-04-02T06:01:59;101043.34;;;2.81;70.48
31092;BME280;67728;53.122;12.776;2023-04-02T06:03:40;101047.56;;;2.79;70.20
31092;BME280;67728;53.122;12.776;2023-04-02T06:05:16;101051.94;;;2.84;71.13
31092;BME280;67728;53.122;12.776;2023-04-02T06:06:56;101058.72;;;2.81;71.16
31092;BME280;67728;53.122;12.776;2023-04-02T06:08:32;101051.06;;;2.82;70.28
31092;BME280;67728;53.122;12.776;2023-04-02T06:10:08;101057.06;;;2.84;69.04
31092;BME280;67728;53.122;12.776;2023-04-02T06:11:44;101067.38;;;2.86;71.25
31092;BME280;67728;53.122;12.776;2023-04-02T06:13:17;101067.38;;;2.87;69.55
31092;BME280;67728;53.122;12.776;2023-04-02T06:14:50;101072.56;;;2.89;70.91
31092;BME280;67728;53.122;12.776;2023-04-02T06:16:25;101078.59;;;2.92;69.52
31092;BME280;67728;53.122;12.776;2023-04-02T06:17:59;101079.53;;;2.96;69.86
31092;BME280;67728;53.122;12.776;2023-04-02T06:19:36;101086.41;;;2.98;70.10
31092;BME280;67728;53.122;12.776;2023-04-02T06:21:11;101077.84;;;2.96;69.63
31092;BME280;67728;53.122;12.776;2023-04-02T06:22:47;101090.50;;;2.90;70.23
31092;BME280;67728;53.122;12.776;2023-04-02T06:24:23;101086.34;;;2.95;69.91
31092;BME280;67728;53.122;12.776;2023-04-02T06:25:59;101090.72;;;3.01;69.25
31092;BME280;67728;53.122;12.776;2023-04-02T06:27:32;101091.50;;;2.97;72.52
31092;BME280;67728;53.122;12.776;2023-04-02T06:29:07;101094.09;;;2.98;72.09
31092;BME280;67728;53.122;12.776;2023-04-02T06:30:42;101096.78;;;3.05;71.34
31092;BME280;67728;53.122;12.776;2023-04-02T06:32:14;101101.13;;;3.07;71.15
31092;BME280;67728;53.122;12.776;2023-04-02T06:33:46;101098.47;;;3.04;69.14
31092;BME280;67728;53.122;12.776;2023-04-02T06:35:22;101107.03;;;3.05;70.20
31092;BME280;67728;53.122;12.776;2023-04-02T06:36:56;101106.25;;;3.09;70.55
31092;BME280;67728;53.122;12.776;2023-04-02T06:38:30;101107.19;;;3.12;69.61
31092;BME280;67728;53.122;12.776;2023-04-02T06:40:03;101111.44;;;3.10;70.31
31092;BME280;67728;53.122;12.776;2023-04-02T06:41:36;101114.88;;;3.11;71.36
31092;BME280;67728;53.122;12.776;2023-04-02T06:43:12;101116.50;;;3.09;69.89
31092;BME280;67728;53.122;12.776;2023-04-02T06:44:47;101118.34;;;3.14;69.54
31092;BME280;67728;53.122;12.776;2023-04-02T06:46:21;101121.84;;;3.19;70.29
31092;BME280;67728;53.122;12.776;2023-04-02T06:47:57;101128.75;;;3.22;69.90
31092;BME280;67728;53.122;12.776;2023-04-02T06:49:33;101125.19;;;3.15;68.22
31092;BME280;67728;53.122;12.776;2023-04-02T06:51:10;101128.69;;;3.19;68.50
31092;BME280;67728;53.122;12.776;2023-04-02T06:52:45;101121.00;;;3.19;69.03
31092;BME280;67728;53.122;12.776;2023-04-02T06:54:18;101127.19;;;3.28;69.07
31092;BME280;67728;53.122;12.776;2023-04-02T06:55:52;101127.91;;;3.23;69.52
31092;BME280;67728;53.122;12.776;2023-04-02T06:57:25;101123.00;;;3.33;69.05
31092;BME280;67728;53.122;12.776;2023-04-02T06:58:57;101131.44;;;3.28;69.99
31092;BME280;67728;53.122;12.776;2023-04-02T07:00:33;101128.13;;;3.32;68.24
31092;BME280;67728;53.122;12.776;2023-04-02T07:02:21;101136.81;;;3.40;69.42
31092;BME280;67728;53.122;12.776;2023-04-02T07:03:55;101135.09;;;3.39;68.06
31092;BME280;67728;53.122;12.776;2023-04-02T07:05:27;101139.56;;;3.49;69.31
31092;BME280;67728;53.122;12.776;2023-04-02T07:07:00;101140.63;;;3.58;67.85
31092;BME280;67728;53.122;12.776;2023-04-02T07:08:31;101150.53;;;3.42;67.52
31092;BME280;67728;53.122;12.776;2023-04-02T07:10:04;101149.94;;;3.55;67.44
31092;BME280;67728;53.122;12.776;2023-04-02T07:11:36;101155.06;;;3.53;67.76
31092;BME280;67728;53.122;12.776;2023-04-02T07:13:09;101149.94;;;3.55;67.67
31092;BME280;67728;53.122;12.776;2023-04-02T07:14:42;101160.25;;;3.56;65.61
31092;BME280;67728;53.122;12.776;2023-04-02T07:16:19;101168.75;;;3.54;66.50
31092;BME280;67728;53.122;12.776;2023-04-02T07:17:51;101165.31;;;3.53;66.94
31092;BME280;67728;53.122;12.776;2023-04-02T07:19:24;101166.34;;;3.61;67.13
31092;BME280;67728;53.122;12.776;2023-04-02T07:20:56;101169.50;;;3.48;65.68
31092;BME280;67728;53.122;12.776;2023-04-02T07:22:29;101174.81;;;3.59;66.55
31092;BME280;67728;53.122;12.776;2023-04-02T07:24:01;101175.66;;;3.58;66.21
31092;BME280;67728;53.122;12.776;2023-04-02T07:25:32;101172.28;;;3.60;64.67
31092;BME280;67728;53.122;12.776;2023-04-02T07:27:04;101188.69;;;3.69;68.81
31092;BME280;67728;53.122;12.776;2023-04-02T07:28:36;101186.25;;;3.76;66.64
31092;BME280;67728;53.122;12.776;2023-04-02T07:30:08;101185.47;;;3.79;64.71
31092;BME280;67728;53.122;12.776;2023-04-02T07:31:40;101188.69;;;3.69;65.06
31092;BME280;67728;53.122;12.776;2023-04-02T07:33:12;101194.88;;;3.78;68.32
31092;BME280;67728;53.122;12.776;2023-04-02T07:34:44;101198.19;;;3.73;65.69
31092;BME280;67728;53.122;12.776;2023-04-02T07:36:19;101189.84;;;3.84;65.09
31092;BME280;67728;53.122;12.776;2023-04-02T07:37:55;101195.78;;;3.80;64.14
31092;BME280;67728;53.122;12.776;2023-04-02T07:39:27;101201.78;;;3.82;62.64
31092;BME280;67728;53.122;12.776;2023-04-02T07:41:04;101200.34;;;3.96;64.26
31092;BME280;67728;53.122;12.776;2023-04-02T07:42:35;101195.03;;;3.86;62.58
31092;BME280;67728;53.122;12.776;2023-04-02T07:44:08;101213.38;;;3.63;63.21
31092;BME280;67728;53.122;12.776;2023-04-02T07:45:40;101209.25;;;3.70;62.05
31092;BME280;67728;53.122;12.776;2023-04-02T07:47:12;101199.88;;;3.72;63.72
31092;BME280;67728;53.122;12.776;2023-04-02T07:48:44;101207.72;;;3.80;65.02
31092;BME280;67728;53.122;12.776;2023-04-02T07:50:15;101210.16;;;3.72;62.08
31092;BME280;67728;53.122;12.776;2023-04-02T07:51:47;101210.63;;;3.98;63.38
31092;BME280;67728;53.122;12.776;2023-04-02T07:53:27;101223.94;;;3.77;61.31
31092;BME280;67728;53.122;12.776;2023-04-02T07:54:59;101221.38;;;3.79;60.39
31092;BME280;67728;53.122;12.776;2023-04-02T07:56:32;101227.38;;;3.79;61.37
31092;BME280;67728;53.122;12.776;2023-04-02T07:58:04;101227.84;;;4.03;63.71
31092;BME280;67728;53.122;12.776;2023-04-02T07:59:38;101224.59;;;4.10;62.68
31092;BME280;67728;53.122;12.776;2023-04-02T08:01:16;101239.28;;;4.19;60.62
31092;BME280;67728;53.122;12.776;2023-04-02T08:02:48;101240.13;;;4.66;63.63
31092;BME280;67728;53.122;12.776;2023-04-02T08:04:21;101242.38;;;4.97;62.50
31092;BME280;67728;53.122;12.776;2023-04-02T08:05:55;101232.72;;;4.84;61.25
31092;BME280;67728;53.122;12.776;2023-04-02T08:07:27;101235.47;;;4.96;60.57
31092;BME280;67728;53.122;12.776;2023-04-02T08:09:00;101245.31;;;4.70;60.77
31092;BME280;67728;53.122;12.776;2023-04-02T08:10:31;101232.56;;;4.75;62.49
31092;BME280;67728;53.122;12.776;2023-04-02T08:12:03;101253.84;;;4.18;61.17
31092;BME280;67728;53.122;12.776;2023-04-02T08:13:35;101253.56;;;4.05;61.26
31092;BME280;67728;53.122;12.776;2023-04-02T08:15:09;101246.69;;;4.02;62.53
31092;BME280;67728;53.122;12.776;2023-04-02T08:16:48;101248.22;;;3.94;60.89
31092;BME280;67728;53.122;12.776;2023-04-02T08:18:21;101259.94;;;4.25;61.65
31092;BME280;67728;53.122;12.776;2023-04-02T08:19:53;101258.53;;;4.42;60.68
31092;BME280;67728;53.122;12.776;2023-04-02T08:21:25;101258.91;;;4.62;62.79
31092;BME280;67728;53.122;12.776;2023-04-02T08:22:56;101248.28;;;4.93;65.02
31092;BME280;67728;53.122;12.776;2023-04-02T08:24:31;101252.66;;;4.97;62.40
31092;BME280;67728;53.122;12.776;2023-04-02T08:26:04;101267.69;;;4.74;61.01
31092;BME280;67728;53.122;12.776;2023-04-02T08:27:35;101269.13;;;4.59;61.02
31092;BME280;67728;53.122;12.776;2023-04-02T08:29:07;101275.66;;;4.91;62.01